Time;durP1;ratioP1;P1;durP2;ratioP2;P2;SDS_P1;SDS_P2;PMS_P1;PMS_P2;Temp;Humidity;BMP_temperature;BMP_pressure;BME280_temperature;BME280_humidity;BME280_pressure;Samples;Min_cycle;Max_cycle;Signal;HPM_P1;HPM_P2
2021/12/25 00:02:07;;;;;;;0.00;0.00;;;;;;;;;;6271942;22;20000;-72
2021/12/25 00:04:33;;;;;;;0.00;0.00;;;;;;;;;;6271921;22;19999;-73
2021/12/25 00:06:58;;;;;;;0.00;0.00;;;;;;;;;;6272179;22;19996;-72
2021/12/25 00:09:23;;;;;;;0.00;0.00;;;;;;;;;;6272661;22;19995;-72
2021/12/25 00:11:48;;;;;;;0.45;0.45;;;;;;;;;;6272216;22;20000;-71
2021/12/25 00:14:14;;;;;;;0.10;0.10;;;;;;;;;;6273301;22;20414;-72
2021/12/25 00:16:39;;;;;;;2.10;2.00;;;;;;;;;;6272762;22;20007;-72
2021/12/25 00:19:04;;;;;;;0.00;0.00;;;;;;;;;;6272986;22;19999;-72
2021/12/25 00:21:30;;;;;;;0.00;0.00;;;;;;;;;;6272642;22;20073;-73
2021/12/25 00:23:55;;;;;;;0.00;0.00;;;;;;;;;;6245371;22;20114;-73
2021/12/25 00:34:40;;;;;;;0.00;0.00;;;;;;;;;;6272117;22;20097;-73
2021/12/25 00:37:05;;;;;;;0.00;0.00;;;;;;;;;;6270881;22;20004;-73
2021/12/25 00:39:31;;;;;;;0.80;0.80;;;;;;;;;;6272625;22;19995;-73
2021/12/25 00:41:57;;;;;;;0.00;0.00;;;;;;;;;;6272205;22;19995;-73
2021/12/25 00:44:22;;;;;;;0.00;0.00;;;;;;;;;;6272201;22;20433;-73
2021/12/25 00:46:47;;;;;;;0.00;0.00;;;;;;;;;;6271857;22;20137;-73
2021/12/25 00:49:12;;;;;;;0.38;0.38;;;;;;;;;;6272534;22;20334;-73
2021/12/25 00:51:38;;;;;;;1.08;1.02;;;;;;;;;;6271338;22;19999;-73
2021/12/25 00:54:03;;;;;;;1.67;1.63;;;;;;;;;;6272592;22;20007;-72
2021/12/25 00:56:28;;;;;;;0.00;0.00;;;;;;;;;;6272277;22;20019;-73
2021/12/25 00:58:54;;;;;;;0.00;0.00;;;;;;;;;;6271750;22;20063;-72
2021/12/25 01:01:19;;;;;;;0.00;0.00;;;;;;;;;;6271769;22;20006;-72
2021/12/25 01:03:44;;;;;;;0.00;0.00;;;;;;;;;;6271185;22;20077;-73
2021/12/25 01:06:10;;;;;;;0.00;0.00;;;;;;;;;;6272173;22;20329;-73
2021/12/25 01:08:35;;;;;;;0.00;0.00;;;;;;;;;;6271834;22;20310;-74
2021/12/25 01:11:00;;;;;;;0.20;0.20;;;;;;;;;;6271967;22;20145;-73
2021/12/25 01:13:30;;;;;;;0.75;0.75;;;;;;;;;;6272641;22;20010;-73
2021/12/25 01:19:06;;;;;;;0.00;0.00;;;;;;;;;;6228866;22;20240;-73
2021/12/25 01:37:02;;;;;;;0.00;0.00;;;;;;;;;;6271617;22;20067;-73
2021/12/25 01:49:46;;;;;;;0.00;0.00;;;;;;;;;;6271545;22;20057;-72
2021/12/25 01:52:11;;;;;;;0.00;0.00;;;;;;;;;;6272407;22;19996;-73
2021/12/25 01:54:36;;;;;;;0.00;0.00;;;;;;;;;;6271586;22;19991;-73
2021/12/25 01:57:02;;;;;;;0.00;0.00;;;;;;;;;;6272455;22;20016;-73
2021/12/25 01:59:28;;;;;;;0.00;0.00;;;;;;;;;;6271713;22;19996;-73
2021/12/25 02:01:54;;;;;;;0.00;0.00;;;;;;;;;;6271717;22;20022;-73
2021/12/25 02:04:19;;;;;;;0.00;0.00;;;;;;;;;;6272230;22;20011;-72
2021/12/25 02:06:45;;;;;;;0.20;0.20;;;;;;;;;;6271640;22;20011;-73
2021/12/25 02:09:10;;;;;;;0.00;0.00;;;;;;;;;;6272168;22;20034;-72
2021/12/25 02:11:35;;;;;;;0.00;0.00;;;;;;;;;;6271793;22;20000;-74
2021/12/25 02:14:02;;;;;;;0.00;0.00;;;;;;;;;;6272417;22;20022;-74
2021/12/25 02:16:36;;;;;;;0.00;0.00;;;;;;;;;;6272361;22;20329;-75
2021/12/25 02:19:13;;;;;;;0.00;0.00;;;;;;;;;;6272328;22;19992;-73
2021/12/25 02:21:39;;;;;;;0.00;0.00;;;;;;;;;;6271492;22;20607;-73
2021/12/25 02:24:11;;;;;;;1.77;1.67;;;;;;;;;;6272349;22;19996;-72
2021/12/25 02:26:38;;;;;;;0.00;0.00;;;;;;;;;;6271196;22;20071;-73
2021/12/25 02:29:03;;;;;;;0.00;0.00;;;;;;;;;;6272299;22;20057;-73
2021/12/25 02:31:29;;;;;;;0.00;0.00;;;;;;;;;;6272034;22;20356;-73
2021/12/25 02:33:55;;;;;;;0.00;0.00;;;;;;;;;;6271801;22;20007;-73
2021/12/25 02:36:20;;;;;;;0.00;0.00;;;;;;;;;;6272069;22;20090;-73
2021/12/25 02:38:46;;;;;;;0.00;0.00;;;;;;;;;;6271500;22;20026;-73
2021/12/25 02:41:11;;;;;;;0.00;0.00;;;;;;;;;;6272401;22;20027;-73
2021/12/25 02:43:37;;;;;;;0.20;0.20;;;;;;;;;;6271379;22;19996;-72
2021/12/25 02:46:04;;;;;;;0.00;0.00;;;;;;;;;;6272337;22;20000;-72
2021/12/25 02:48:30;;;;;;;0.00;0.00;;;;;;;;;;6272143;22;20046;-72
2021/12/25 02:50:55;;;;;;;1.95;1.85;;;;;;;;;;6271217;22;20003;-73
2021/12/25 02:53:20;;;;;;;0.00;0.00;;;;;;;;;;6273879;22;19996;-73
2021/12/25 02:55:46;;;;;;;0.00;0.00;;;;;;;;;;6273329;22;19993;-73
2021/12/25 02:58:12;;;;;;;0.00;0.00;;;;;;;;;;6274214;22;20053;-73
2021/12/25 03:00:37;;;;;;;0.00;0.00;;;;;;;;;;6273942;22;20003;-74
2021/12/25 03:03:04;;;;;;;0.00;0.00;;;;;;;;;;6274211;22;20038;-73
2021/12/25 03:05:30;;;;;;;0.03;0.03;;;;;;;;;;6273727;22;19999;-74
2021/12/25 03:07:55;;;;;;;0.00;0.00;;;;;;;;;;6273608;22;20008;-73
2021/12/25 03:10:20;;;;;;;0.00;0.00;;;;;;;;;;6274292;22;20073;-74
2021/12/25 03:12:53;;;;;;;0.00;0.00;;;;;;;;;;6273566;22;20069;-73
2021/12/25 03:15:28;;;;;;;0.00;0.00;;;;;;;;;;6274221;22;19995;-71
2021/12/25 03:17:53;;;;;;;0.00;0.00;;;;;;;;;;6273522;22;20010;-73
2021/12/25 03:20:19;;;;;;;0.00;0.00;;;;;;;;;;6274010;22;19992;-72
2021/12/25 03:22:44;;;;;;;0.00;0.00;;;;;;;;;;6273773;22;19999;-69
2021/12/25 03:25:11;;;;;;;0.00;0.00;;;;;;;;;;6273095;22;20034;-69
2021/12/25 03:27:38;;;;;;;0.00;0.00;;;;;;;;;;6273459;22;20071;-70
2021/12/25 03:30:04;;;;;;;0.00;0.00;;;;;;;;;;6273987;22;20007;-69
2021/12/25 03:32:29;;;;;;;0.00;0.00;;;;;;;;;;6274084;22;20401;-70
2021/12/25 03:34:54;;;;;;;0.03;0.03;;;;;;;;;;6273365;22;19996;-71
2021/12/25 03:37:19;;;;;;;0.00;0.00;;;;;;;;;;6273558;22;20375;-70
2021/12/25 03:39:44;;;;;;;0.00;0.00;;;;;;;;;;6273421;22;20091;-70
2021/12/25 03:42:10;;;;;;;0.00;0.00;;;;;;;;;;6273958;22;20127;-70
2021/12/25 03:44:35;;;;;;;6.88;6.50;;;;;;;;;;6273478;22;20000;-71
2021/12/25 03:47:10;;;;;;;1.45;1.45;;;;;;;;;;6274083;22;20417;-71
2021/12/25 03:53:07;;;;;;;0.00;0.00;;;;;;;;;;6273366;22;20428;-72
2021/12/25 03:57:57;;;;;;;0.35;0.35;;;;;;;;;;6272800;22;20007;-71
2021/12/25 04:00:29;;;;;;;0.32;0.32;;;;;;;;;;6273538;22;19992;-71
2021/12/25 04:02:58;;;;;;;2.85;2.72;;;;;;;;;;6272980;22;20694;-71
2021/12/25 04:05:28;;;;;;;0.00;0.00;;;;;;;;;;6246038;22;19996;-71
2021/12/25 04:10:25;;;;;;;0.00;0.00;;;;;;;;;;6283967;22;20634;-70
2021/12/25 04:12:51;;;;;;;2.17;2.08;;;;;;;;;;6272886;22;19992;-71
2021/12/25 04:15:16;;;;;;;0.75;0.75;;;;;;;;;;6273788;22;19996;-69
2021/12/25 04:17:41;;;;;;;3.33;2.42;;;;;;;;;;6272951;22;20671;-70
2021/12/25 04:20:06;;;;;;;0.00;0.00;;;;;;;;;;6273366;22;20027;-73
2021/12/25 04:22:44;;;;;;;0.60;0.60;;;;;;;;;;6245220;22;20028;-71
2021/12/25 04:25:10;;;;;;;0.00;0.00;;;;;;;;;;6273199;22;20000;-71
2021/12/25 04:27:37;;;;;;;0.38;0.38;;;;;;;;;;6272912;22;20004;-71
2021/12/25 04:30:15;;;;;;;0.13;0.13;;;;;;;;;;6273124;22;20007;-69
2021/12/25 04:49:38;;;;;;;0.00;0.00;;;;;;;;;;6272560;22;20014;-69
2021/12/25 05:03:39;;;;;;;0.00;0.00;;;;;;;;;;6272487;22;20030;-69
2021/12/25 05:05:33;;;;;;;0.25;0.25;;;;;;;;;;6255802;22;20385;-69
2021/12/25 05:07:59;;;;;;;1.08;0.77;;;;;;;;;;6245010;22;20046;-69
2021/12/25 05:10:24;;;;;;;0.52;0.47;;;;;;;;;;6273129;22;20659;-69
2021/12/25 05:12:49;;;;;;;0.60;0.60;;;;;;;;;;6272153;22;20031;-69
2021/12/25 05:15:15;;;;;;;1.08;0.85;;;;;;;;;;6273293;22;20409;-69
2021/12/25 05:17:40;;;;;;;3.72;2.08;;;;;;;;;;6272782;22;20410;-69
2021/12/25 05:20:05;;;;;;;0.93;0.93;;;;;;;;;;6272638;22;20000;-69
2021/12/25 05:22:31;;;;;;;0.93;0.93;;;;;;;;;;6272904;22;20034;-69
2021/12/25 05:24:56;;;;;;;0.93;0.77;;;;;;;;;;6272564;22;20000;-69
2021/12/25 05:27:21;;;;;;;0.63;0.55;;;;;;;;;;6273198;22;20012;-69
2021/12/25 05:29:47;;;;;;;0.00;0.00;;;;;;;;;;6272929;22;20317;-68
2021/12/25 05:32:16;;;;;;;1.70;1.60;;;;;;;;;;6273660;22;20349;-69
2021/12/25 05:34:41;;;;;;;1.70;1.65;;;;;;;;;;6272760;22;20019;-69
2021/12/25 05:37:07;;;;;;;1.60;1.55;;;;;;;;;;6272750;22;19992;-69
2021/12/25 05:39:32;;;;;;;2.50;1.00;;;;;;;;;;6273300;22;20069;-68
2021/12/25 05:41:58;;;;;;;1.13;1.10;;;;;;;;;;6272830;22;20286;-69
2021/12/25 05:44:24;;;;;;;0.20;0.20;;;;;;;;;;6273189;22;20002;-69
2021/12/25 05:46:49;;;;;;;0.70;0.70;;;;;;;;;;6272472;22;20004;-69
2021/12/25 05:49:14;;;;;;;0.00;0.00;;;;;;;;;;6272139;22;20004;-69
2021/12/25 05:51:40;;;;;;;0.40;0.40;;;;;;;;;;6271496;22;20078;-69
2021/12/25 05:54:05;;;;;;;2.03;0.95;;;;;;;;;;6272182;22;19996;-70
2021/12/25 05:56:31;;;;;;;0.43;0.43;;;;;;;;;;6272246;22;20082;-69
2021/12/25 05:58:56;;;;;;;0.22;0.22;;;;;;;;;;6271733;22;20356;-69
2021/12/25 06:01:21;;;;;;;0.10;0.10;;;;;;;;;;6272894;22;20086;-69
2021/12/25 06:03:47;;;;;;;0.00;0.00;;;;;;;;;;6272643;22;20027;-69
2021/12/25 06:06:12;;;;;;;0.45;0.45;;;;;;;;;;6272832;22;20033;-70
2021/12/25 06:08:37;;;;;;;1.48;1.42;;;;;;;;;;6272115;22;20007;-67
2021/12/25 06:11:03;;;;;;;0.20;0.20;;;;;;;;;;6273007;22;20077;-69
2021/12/25 06:13:29;;;;;;;0.35;0.35;;;;;;;;;;6272991;22;19995;-69
2021/12/25 06:15:56;;;;;;;1.17;1.17;;;;;;;;;;6272635;22;20916;-69
2021/12/25 06:18:21;;;;;;;3.10;2.75;;;;;;;;;;6271827;22;20053;-70
2021/12/25 06:20:46;;;;;;;0.15;0.15;;;;;;;;;;6272047;22;20004;-69
2021/12/25 06:23:11;;;;;;;0.45;0.22;;;;;;;;;;6272691;22;20004;-68
2021/12/25 06:25:37;;;;;;;0.50;0.50;;;;;;;;;;6272054;22;20008;-69
2021/12/25 06:28:02;;;;;;;0.45;0.45;;;;;;;;;;6272383;22;20031;-70
2021/12/25 06:30:27;;;;;;;1.77;1.30;;;;;;;;;;6271747;22;19991;-70
2021/12/25 06:32:52;;;;;;;1.45;0.93;;;;;;;;;;6271606;22;19996;-70
2021/12/25 06:35:18;;;;;;;0.28;0.28;;;;;;;;;;6271932;22;20007;-70
2021/12/25 06:37:46;;;;;;;0.30;0.30;;;;;;;;;;6244505;22;20079;-70
2021/12/25 06:40:12;;;;;;;1.45;1.35;;;;;;;;;;6245629;22;20002;-70
2021/12/25 06:42:38;;;;;;;1.75;1.65;;;;;;;;;;6271502;22;19992;-69
2021/12/25 06:45:05;;;;;;;0.22;0.22;;;;;;;;;;6272533;22;19992;-69
2021/12/25 06:47:30;;;;;;;0.03;0.03;;;;;;;;;;6271421;22;20000;-69
2021/12/25 06:49:55;;;;;;;1.50;0.90;;;;;;;;;;6272047;22;20433;-70
2021/12/25 06:52:20;;;;;;;0.40;0.40;;;;;;;;;;6272399;22;20027;-69
2021/12/25 06:54:46;;;;;;;1.85;1.75;;;;;;;;;;6271911;22;20019;-69
2021/12/25 06:57:11;;;;;;;0.95;0.95;;;;;;;;;;6272665;22;20004;-69
2021/12/25 06:59:36;;;;;;;0.73;0.73;;;;;;;;;;6243979;22;20010;-69
2021/12/25 07:02:02;;;;;;;0.85;0.85;;;;;;;;;;6271482;22;20321;-69
2021/12/25 07:04:27;;;;;;;1.65;1.55;;;;;;;;;;6271567;22;20357;-69
2021/12/25 07:06:52;;;;;;;0.28;0.28;;;;;;;;;;6270951;22;20000;-69
2021/12/25 07:09:17;;;;;;;0.25;0.25;;;;;;;;;;6271282;22;20745;-72
2021/12/25 07:11:43;;;;;;;1.08;1.08;;;;;;;;;;6271108;22;19992;-71
2021/12/25 07:14:09;;;;;;;0.43;0.43;;;;;;;;;;6270850;22;20000;-71
2021/12/25 07:16:34;;;;;;;2.25;0.60;;;;;;;;;;6271036;22;20043;-69
2021/12/25 07:19:00;;;;;;;2.40;1.15;;;;;;;;;;6271340;22;20007;-69
2021/12/25 07:21:25;;;;;;;0.00;0.00;;;;;;;;;;6270875;22;19999;-69
2021/12/25 07:23:50;;;;;;;12.70;1.60;;;;;;;;;;6270934;22;20113;-65
2021/12/25 07:26:19;;;;;;;2.28;1.10;;;;;;;;;;6271421;22;20004;-66
2021/12/25 07:28:48;;;;;;;2.20;2.00;;;;;;;;;;6270806;22;20333;-65
2021/12/25 07:31:13;;;;;;;9.68;1.70;;;;;;;;;;6271529;22;20054;-65
2021/12/25 07:33:40;;;;;;;1.35;1.35;;;;;;;;;;6272876;22;20004;-64
2021/12/25 07:36:06;;;;;;;0.13;0.13;;;;;;;;;;6242087;22;20007;-65
2021/12/25 07:38:32;;;;;;;4.10;1.38;;;;;;;;;;6271715;22;20425;-64
2021/12/25 07:40:57;;;;;;;0.75;0.75;;;;;;;;;;6272762;22;20002;-65
2021/12/25 07:43:22;;;;;;;0.40;0.38;;;;;;;;;;6272614;22;20015;-65
2021/12/25 07:45:48;;;;;;;0.35;0.35;;;;;;;;;;6272580;22;19995;-64
2021/12/25 07:48:14;;;;;;;0.95;0.95;;;;;;;;;;6273190;22;20483;-64
2021/12/25 07:50:40;;;;;;;1.55;1.45;;;;;;;;;;6272209;22;19999;-64
2021/12/25 07:53:06;;;;;;;1.88;0.65;;;;;;;;;;6272661;22;20337;-66
2021/12/25 07:55:32;;;;;;;0.50;0.50;;;;;;;;;;6272891;22;19999;-67
2021/12/25 07:57:57;;;;;;;0.65;0.65;;;;;;;;;;6272309;22;20405;-67
2021/12/25 08:00:23;;;;;;;0.55;0.55;;;;;;;;;;6273016;22;20333;-67
2021/12/25 08:02:48;;;;;;;3.33;3.15;;;;;;;;;;6271987;22;20125;-67
2021/12/25 08:05:13;;;;;;;1.10;0.40;;;;;;;;;;6272809;22;20297;-67
2021/12/25 08:07:39;;;;;;;0.50;0.40;;;;;;;;;;6271537;22;19991;-66
2021/12/25 08:10:13;;;;;;;0.00;0.00;;;;;;;;;;6272690;22;19999;-66
2021/12/25 08:12:42;;;;;;;0.70;0.70;;;;;;;;;;6271354;22;19999;-68
2021/12/25 08:15:08;;;;;;;0.35;0.35;;;;;;;;;;6272135;22;19998;-66
2021/12/25 08:17:33;;;;;;;0.32;0.32;;;;;;;;;;6272061;22;19995;-67
2021/12/25 08:19:58;;;;;;;0.20;0.20;;;;;;;;;;6271689;22;19996;-68
2021/12/25 08:22:23;;;;;;;0.40;0.30;;;;;;;;;;6271961;22;20011;-68
2021/12/25 08:24:51;;;;;;;0.85;0.85;;;;;;;;;;6271920;22;19999;-68
2021/12/25 08:27:16;;;;;;;0.65;0.65;;;;;;;;;;6269538;22;20020;-68
2021/12/25 08:29:42;;;;;;;0.70;0.30;;;;;;;;;;6271154;22;20116;-63
2021/12/25 08:32:07;;;;;;;0.40;0.40;;;;;;;;;;6272782;22;20002;-63
2021/12/25 08:34:32;;;;;;;0.00;0.00;;;;;;;;;;6272564;22;20026;-63
2021/12/25 08:36:58;;;;;;;0.65;0.65;;;;;;;;;;6273073;22;20002;-65
2021/12/25 08:39:23;;;;;;;0.47;0.47;;;;;;;;;;6246366;22;19996;-65
2021/12/25 08:41:48;;;;;;;0.80;0.80;;;;;;;;;;6269975;22;20049;-65
2021/12/25 08:44:30;;;;;;;0.38;0.38;;;;;;;;;;6272398;22;20060;-66
2021/12/25 08:46:56;;;;;;;0.45;0.45;;;;;;;;;;6244336;22;20455;-66
2021/12/25 08:49:24;;;;;;;2.38;0.80;;;;;;;;;;6272815;22;19996;-66
2021/12/25 08:51:51;;;;;;;0.00;0.00;;;;;;;;;;6272823;22;20071;-66
2021/12/25 08:54:17;;;;;;;0.22;0.08;;;;;;;;;;6273133;22;20002;-65
2021/12/25 08:56:42;;;;;;;0.00;0.00;;;;;;;;;;6272177;22;20043;-67
2021/12/25 08:59:07;;;;;;;0.47;0.28;;;;;;;;;;6271152;22;20087;-64
2021/12/25 09:01:33;;;;;;;0.15;0.15;;;;;;;;;;6270087;22;20414;-64
2021/12/25 09:03:59;;;;;;;0.65;0.57;;;;;;;;;;6271735;22;20004;-65
2021/12/25 09:06:25;;;;;;;0.73;0.73;;;;;;;;;;6271848;22;20011;-62
2021/12/25 09:08:51;;;;;;;0.70;0.68;;;;;;;;;;6271501;22;20010;-64
2021/12/25 09:11:17;;;;;;;0.65;0.65;;;;;;;;;;6271734;22;20070;-62
2021/12/25 09:13:43;;;;;;;1.27;1.17;;;;;;;;;;6273435;22;19996;-62
2021/12/25 09:16:08;;;;;;;0.55;0.55;;;;;;;;;;6273484;22;20075;-64
2021/12/25 09:18:33;;;;;;;1.85;1.75;;;;;;;;;;6273104;22;20031;-63
2021/12/25 09:20:58;;;;;;;0.75;0.75;;;;;;;;;;6270987;22;19995;-65
2021/12/25 09:23:24;;;;;;;0.45;0.17;;;;;;;;;;6269591;22;20003;-69
2021/12/25 09:25:49;;;;;;;1.08;1.08;;;;;;;;;;6271433;22;20043;-72
2021/12/25 09:28:14;;;;;;;1.08;1.02;;;;;;;;;;6272934;22;20090;-68
2021/12/25 09:30:42;;;;;;;1.55;1.45;;;;;;;;;;6272405;22;20010;-67
2021/12/25 09:33:07;;;;;;;0.15;0.15;;;;;;;;;;6272407;22;19996;-65
2021/12/25 09:35:35;;;;;;;1.55;1.05;;;;;;;;;;6274037;22;20424;-67
2021/12/25 09:38:06;;;;;;;1.08;1.05;;;;;;;;;;6244956;22;19999;-65
2021/12/25 09:40:31;;;;;;;1.17;1.17;;;;;;;;;;6272556;22;20053;-65
2021/12/25 09:42:57;;;;;;;0.98;0.93;;;;;;;;;;6246300;22;19996;-65
2021/12/25 09:45:22;;;;;;;1.20;1.17;;;;;;;;;;6273516;22;20322;-64
2021/12/25 09:47:50;;;;;;;0.47;0.40;;;;;;;;;;6278154;22;20022;-66
2021/12/25 09:50:15;;;;;;;0.32;0.32;;;;;;;;;;6272535;22;19999;-64
2021/12/25 09:52:41;;;;;;;0.50;0.20;;;;;;;;;;6271529;22;20050;-64
2021/12/25 09:55:07;;;;;;;0.57;0.57;;;;;;;;;;6272457;22;19999;-64
2021/12/25 09:57:35;;;;;;;1.23;1.13;;;;;;;;;;6272653;22;20008;-64
2021/12/25 10:00:05;;;;;;;2.40;1.48;;;;;;;;;;6271974;22;20004;-65
2021/12/25 10:02:40;;;;;;;0.65;0.47;;;;;;;;;;6273332;22;20003;-64
2021/12/25 10:05:05;;;;;;;0.00;0.00;;;;;;;;;;6273188;22;20000;-66
2021/12/25 10:07:30;;;;;;;2.38;0.65;;;;;;;;;;6270970;22;20003;-64
2021/12/25 10:10:01;;;;;;;0.22;0.22;;;;;;;;;;6271398;22;20025;-65
2021/12/25 10:12:29;;;;;;;3.70;1.38;;;;;;;;;;6272647;22;19992;-65
2021/12/25 10:14:56;;;;;;;0.00;0.00;;;;;;;;;;6271701;22;19991;-64
2021/12/25 10:17:26;;;;;;;0.00;0.00;;;;;;;;;;6272661;22;20079;-64
2021/12/25 10:20:08;;;;;;;0.00;0.00;;;;;;;;;;6272151;22;20322;-61
2021/12/25 10:22:56;;;;;;;0.35;0.35;;;;;;;;;;6273365;22;20413;-66
2021/12/25 10:25:21;;;;;;;0.47;0.47;;;;;;;;;;6272020;22;20000;-69
2021/12/25 10:27:51;;;;;;;1.33;1.33;;;;;;;;;;6272266;22;20011;-69
2021/12/25 10:30:16;;;;;;;0.32;0.32;;;;;;;;;;6273246;22;20004;-69
2021/12/25 10:32:41;;;;;;;2.28;1.95;;;;;;;;;;6271698;22;19992;-68
2021/12/25 10:35:14;;;;;;;1.15;0.95;;;;;;;;;;6271674;22;19995;-69
2021/12/25 10:37:39;;;;;;;0.60;0.60;;;;;;;;;;6242908;22;20329;-70
2021/12/25 10:40:16;;;;;;;0.73;0.70;;;;;;;;;;6271603;22;20082;-69
2021/12/25 10:42:44;;;;;;;1.15;0.68;;;;;;;;;;6271486;22;20053;-70
2021/12/25 10:45:12;;;;;;;1.30;1.20;;;;;;;;;;6272210;22;19995;-69
2021/12/25 10:47:40;;;;;;;0.22;0.22;;;;;;;;;;6272899;22;19999;-70
2021/12/25 10:50:13;;;;;;;0.52;0.52;;;;;;;;;;6272429;22;20054;-70
2021/12/25 10:52:42;;;;;;;0.03;0.00;;;;;;;;;;6272397;22;20007;-70
2021/12/25 10:55:24;;;;;;;0.65;0.65;;;;;;;;;;6272611;22;20310;-71
2021/12/25 10:57:50;;;;;;;2.28;2.08;;;;;;;;;;6272076;22;19992;-70
2021/12/25 11:00:22;;;;;;;0.77;0.77;;;;;;;;;;6272818;22;19999;-71
2021/12/25 11:02:48;;;;;;;2.70;2.50;;;;;;;;;;6271879;22;20071;-70
2021/12/25 11:05:18;;;;;;;1.30;1.25;;;;;;;;;;6271587;22;20444;-70
2021/12/25 11:07:46;;;;;;;1.90;1.80;;;;;;;;;;6271021;22;19998;-70
2021/12/25 11:10:18;;;;;;;0.82;0.82;;;;;;;;;;6272114;22;20004;-70
2021/12/25 11:12:44;;;;;;;1.40;0.82;;;;;;;;;;6272065;22;20467;-70
2021/12/25 11:15:09;;;;;;;0.65;0.52;;;;;;;;;;6273848;22;19992;-70
2021/12/25 11:17:37;;;;;;;19.00;1.55;;;;;;;;;;6274719;22;20584;-70
2021/12/25 11:20:03;;;;;;;1.83;1.13;;;;;;;;;;6275036;22;20050;-69
2021/12/25 11:22:47;;;;;;;1.02;0.98;;;;;;;;;;6246763;22;20457;-69
2021/12/25 11:25:13;;;;;;;0.52;0.52;;;;;;;;;;6273762;22;20030;-70
2021/12/25 11:27:38;;;;;;;0.68;0.68;;;;;;;;;;6274268;22;20003;-70
2021/12/25 11:30:07;;;;;;;0.08;0.08;;;;;;;;;;6274337;22;20469;-69
2021/12/25 11:32:32;;;;;;;0.67;0.43;;;;;;;;;;6275044;22;20000;-70
2021/12/25 11:35:00;;;;;;;1.20;1.20;;;;;;;;;;6272997;22;20054;-69
2021/12/25 11:37:26;;;;;;;0.00;0.00;;;;;;;;;;6246684;22;20007;-69
2021/12/25 11:39:53;;;;;;;1.30;1.30;;;;;;;;;;6274299;22;20067;-70
2021/12/25 11:42:19;;;;;;;0.47;0.43;;;;;;;;;;6274470;22;20067;-70
2021/12/25 11:44:49;;;;;;;1.30;1.30;;;;;;;;;;6273395;22;20030;-70
2021/12/25 11:47:32;;;;;;;0.65;0.65;;;;;;;;;;6247383;22;20450;-70
2021/12/25 11:49:59;;;;;;;1.40;1.30;;;;;;;;;;6275055;22;20020;-70
2021/12/25 11:52:30;;;;;;;1.08;0.65;;;;;;;;;;6274281;22;19995;-69
2021/12/25 11:55:13;;;;;;;1.52;1.25;;;;;;;;;;6273422;22;20019;-69
2021/12/25 11:57:48;;;;;;;0.57;0.57;;;;;;;;;;6274278;22;20283;-69
2021/12/25 12:00:14;;;;;;;1.05;0.98;;;;;;;;;;6274273;22;20003;-69
2021/12/25 12:02:43;;;;;;;1.65;1.55;;;;;;;;;;6274288;22;20010;-70
2021/12/25 12:05:18;;;;;;;2.25;2.15;;;;;;;;;;6273954;22;20006;-70
2021/12/25 12:08:03;;;;;;;4.35;1.88;;;;;;;;;;6273543;22;20075;-70
2021/12/25 12:10:46;;;;;;;0.90;0.90;;;;;;;;;;6274607;22;19999;-70
2021/12/25 12:13:14;;;;;;;1.23;1.13;;;;;;;;;;6274073;22;19991;-69
2021/12/25 12:15:45;;;;;;;1.73;1.17;;;;;;;;;;6246409;22;20000;-69
2021/12/25 12:18:22;;;;;;;1.13;0.90;;;;;;;;;;6274698;22;20623;-70
2021/12/25 12:20:47;;;;;;;0.35;0.35;;;;;;;;;;6274072;22;20338;-71
2021/12/25 12:23:43;;;;;;;1.30;1.10;;;;;;;;;;6273971;22;20027;-70
2021/12/25 12:26:12;;;;;;;0.40;0.40;;;;;;;;;;6272855;22;20007;-70
2021/12/25 12:28:52;;;;;;;0.45;0.45;;;;;;;;;;6273595;22;20100;-70
2021/12/25 12:31:34;;;;;;;1.27;1.20;;;;;;;;;;6272565;22;20003;-71
2021/12/25 12:34:00;;;;;;;0.20;0.20;;;;;;;;;;6272438;22;20723;-71
2021/12/25 12:36:26;;;;;;;0.80;0.80;;;;;;;;;;6273190;22;20003;-71
2021/12/25 12:38:56;;;;;;;1.40;1.33;;;;;;;;;;6272694;22;20475;-71
2021/12/25 12:41:22;;;;;;;1.40;1.35;;;;;;;;;;6273281;22;19996;-71
2021/12/25 12:43:59;;;;;;;1.35;1.25;;;;;;;;;;6272623;22;20005;-71
2021/12/25 12:46:45;;;;;;;1.60;1.50;;;;;;;;;;6273179;22;20289;-71
2021/12/25 12:49:10;;;;;;;0.25;0.25;;;;;;;;;;6270963;22;20110;-70
2021/12/25 12:51:35;;;;;;;0.75;0.75;;;;;;;;;;6272846;22;20506;-70
2021/12/25 12:54:01;;;;;;;2.13;2.03;;;;;;;;;;6273591;22;20044;-69
2021/12/25 12:56:26;;;;;;;0.00;0.00;;;;;;;;;;6274234;22;19999;-67
2021/12/25 12:58:53;;;;;;;1.52;1.42;;;;;;;;;;6270361;22;20004;-68
2021/12/25 13:01:18;;;;;;;0.10;0.10;;;;;;;;;;6271242;22;20000;-70
2021/12/25 13:03:44;;;;;;;0.75;0.75;;;;;;;;;;6272278;22;20422;-74
2021/12/25 13:06:15;;;;;;;2.00;1.50;;;;;;;;;;6272749;22;20035;-72
2021/12/25 13:08:43;;;;;;;0.98;0.98;;;;;;;;;;6244958;22;20007;-72
2021/12/25 13:11:14;;;;;;;3.28;1.52;;;;;;;;;;6271732;22;19992;-75
2021/12/25 13:13:50;;;;;;;2.30;2.20;;;;;;;;;;6272269;22;20012;-73
2021/12/25 13:16:16;;;;;;;2.67;1.70;;;;;;;;;;6271586;22;20087;-73
2021/12/25 13:18:42;;;;;;;3.05;2.83;;;;;;;;;;6271722;22;20027;-73
2021/12/25 13:21:09;;;;;;;1.35;1.30;;;;;;;;;;6270976;22;19999;-73
2021/12/25 13:23:36;;;;;;;1.92;1.80;;;;;;;;;;6271817;22;20078;-72
2021/12/25 13:26:08;;;;;;;1.10;1.10;;;;;;;;;;6271099;22;20093;-72
2021/12/25 13:28:37;;;;;;;1.13;1.08;;;;;;;;;;6270914;22;20050;-73
2021/12/25 13:31:11;;;;;;;0.73;0.73;;;;;;;;;;6269938;22;20030;-73
2021/12/25 13:33:43;;;;;;;0.10;0.10;;;;;;;;;;6271153;22;19999;-72
2021/12/25 13:36:09;;;;;;;1.10;1.10;;;;;;;;;;6272095;22;20003;-70
2021/12/25 13:38:45;;;;;;;1.20;1.20;;;;;;;;;;6271615;22;20442;-71
2021/12/25 13:41:11;;;;;;;2.17;1.35;;;;;;;;;;6270999;22;20008;-63
2021/12/25 13:43:36;;;;;;;0.82;0.82;;;;;;;;;;6240425;22;20098;-71
2021/12/25 13:46:01;;;;;;;0.93;0.60;;;;;;;;;;6270738;22;20320;-67
2021/12/25 13:48:26;;;;;;;0.82;0.82;;;;;;;;;;6270245;22;20052;-69
2021/12/25 13:50:59;;;;;;;0.00;0.00;;;;;;;;;;6244689;22;20038;-69
2021/12/25 13:53:28;;;;;;;1.02;0.73;;;;;;;;;;6270783;22;19995;-71
2021/12/25 13:55:54;;;;;;;0.73;0.73;;;;;;;;;;6270832;22;20008;-71
2021/12/25 13:58:19;;;;;;;0.98;0.98;;;;;;;;;;6271159;22;20003;-67
2021/12/25 14:00:50;;;;;;;0.40;0.40;;;;;;;;;;6270860;22;20004;-69
2021/12/25 14:03:17;;;;;;;4.55;3.25;;;;;;;;;;6270493;22;20001;-69
2021/12/25 14:05:44;;;;;;;1.70;1.65;;;;;;;;;;6268855;22;20006;-70
2021/12/25 14:08:12;;;;;;;1.95;1.75;;;;;;;;;;6269495;22;19995;-69
2021/12/25 14:10:40;;;;;;;0.32;0.32;;;;;;;;;;6269196;22;20078;-72
2021/12/25 14:13:12;;;;;;;1.67;1.50;;;;;;;;;;6269276;22;20660;-70
2021/12/25 14:15:40;;;;;;;1.65;1.63;;;;;;;;;;6270519;22;20359;-69
2021/12/25 14:18:05;;;;;;;1.60;1.50;;;;;;;;;;6269749;22;20130;-70
2021/12/25 14:20:32;;;;;;;2.22;2.03;;;;;;;;;;6271379;22;20080;-69
2021/12/25 14:23:03;;;;;;;1.27;1.27;;;;;;;;;;6271242;22;20003;-71
2021/12/25 14:25:30;;;;;;;1.63;1.42;;;;;;;;;;6274096;22;20015;-70
2021/12/25 14:28:01;;;;;;;2.88;2.42;;;;;;;;;;6272257;22;20019;-70
2021/12/25 14:30:28;;;;;;;1.77;1.67;;;;;;;;;;6273499;22;20004;-71
2021/12/25 14:32:53;;;;;;;0.32;0.32;;;;;;;;;;6270506;22;20015;-70
2021/12/25 14:35:19;;;;;;;0.32;0.32;;;;;;;;;;6271484;22;19991;-71
2021/12/25 14:37:45;;;;;;;0.90;0.90;;;;;;;;;;6271479;22;20074;-69
2021/12/25 14:40:15;;;;;;;2.28;2.08;;;;;;;;;;6270450;22;20038;-71
2021/12/25 14:42:41;;;;;;;1.65;1.55;;;;;;;;;;6271037;22;19995;-71
2021/12/25 14:45:07;;;;;;;1.17;1.17;;;;;;;;;;6270948;22;20000;-69
2021/12/25 14:47:33;;;;;;;1.83;1.73;;;;;;;;;;6272038;22;20023;-69
2021/12/25 14:49:58;;;;;;;1.55;0.73;;;;;;;;;;6245089;22;20448;-69
2021/12/25 14:52:23;;;;;;;0.65;0.45;;;;;;;;;;6272748;22;20023;-70
2021/12/25 14:54:49;;;;;;;1.67;1.58;;;;;;;;;;6266486;22;20000;-67
2021/12/25 14:57:22;;;;;;;2.05;1.42;;;;;;;;;;6269857;22;20004;-69
2021/12/25 14:59:47;;;;;;;0.30;0.30;;;;;;;;;;6270973;22;20075;-69
2021/12/25 15:02:17;;;;;;;1.55;1.45;;;;;;;;;;6272788;22;20436;-70
2021/12/25 15:04:46;;;;;;;1.70;1.70;;;;;;;;;;6273461;22;19995;-71
2021/12/25 15:07:12;;;;;;;2.05;1.95;;;;;;;;;;6272173;22;19996;-69
2021/12/25 15:09:39;;;;;;;1.40;1.40;;;;;;;;;;6268792;22;20058;-70
2021/12/25 15:12:07;;;;;;;1.33;1.30;;;;;;;;;;6270451;22;20102;-71
2021/12/25 15:14:34;;;;;;;1.42;1.33;;;;;;;;;;6266846;22;20102;-72
2021/12/25 15:17:02;;;;;;;1.90;1.75;;;;;;;;;;6270145;22;19998;-71
2021/12/25 15:19:35;;;;;;;2.13;2.03;;;;;;;;;;6244094;22;20301;-71
2021/12/25 15:22:11;;;;;;;1.40;1.40;;;;;;;;;;6270491;22;20000;-68
2021/12/25 15:24:37;;;;;;;3.42;0.70;;;;;;;;;;6270022;22;20008;-71
2021/12/25 15:27:04;;;;;;;0.47;0.47;;;;;;;;;;6271053;22;20498;-67
2021/12/25 15:29:36;;;;;;;1.00;0.93;;;;;;;;;;6271598;22;20333;-68
2021/12/25 15:32:04;;;;;;;3.50;3.20;;;;;;;;;;6270532;22;19996;-69
2021/12/25 15:34:29;;;;;;;3.53;1.73;;;;;;;;;;6243751;22;19999;-71
2021/12/25 15:36:55;;;;;;;1.42;1.38;;;;;;;;;;6270918;22;19995;-68
2021/12/25 15:39:24;;;;;;;1.77;0.60;;;;;;;;;;6244129;22;20004;-69
2021/12/25 15:41:49;;;;;;;0.43;0.43;;;;;;;;;;6270735;22;20022;-68
2021/12/25 15:44:16;;;;;;;0.80;0.80;;;;;;;;;;6271294;22;20007;-68
2021/12/25 15:46:41;;;;;;;0.90;0.30;;;;;;;;;;6271510;22;20000;-67
2021/12/25 15:49:07;;;;;;;1.20;1.00;;;;;;;;;;6270886;22;20004;-68
2021/12/25 15:51:33;;;;;;;0.47;0.47;;;;;;;;;;6271517;22;20023;-69
2021/12/25 15:53:58;;;;;;;0.60;0.60;;;;;;;;;;6270521;22;19992;-66
2021/12/25 15:56:24;;;;;;;0.70;0.65;;;;;;;;;;6271292;22;20367;-68
2021/12/25 15:58:50;;;;;;;0.00;0.00;;;;;;;;;;6270345;22;20035;-70